Flight Track Log - Related Links

Times and Time Zones

All times are in EDT time to prevent confusion due to time zone crossing. See the WBR2907 flight status page for this flight to view local times or setup timezone preferences in your user account.

Time Position Orientation Groundspeed Altitude Reporting Facility
EDT Latitude Longitude Course Direction KTS MPH feet Rate Location/Type
Sat 08:26:35 AM 40.7394 -91.1311 159° South 169 194 2,400  Level Chicago Center
Sat 08:27:37 AM 40.7014 -91.1153 162° South 145 167 3,100 732 Climbing Chicago Center
Sat 08:28:38 AM 40.6622 -91.1008 164° South 147 169 3,900 787 Climbing Chicago Center
Sat 08:29:00 AM 40.6668 -91.0798 163° South  Level FlightAware Approximate
Sat 08:29:39 AM 40.6233 -91.0858 164° South 145 167 4,700  Level Chicago Center
Sat 08:30:00 AM 40.6225 -91.0613 159° South  Level FlightAware Approximate
Sat 08:30:40 AM 40.5850 -91.0694 162° South 146 168 5,500  Level Chicago Center
Sat 08:31:00 AM 40.5791 -91.0395 159° South  Level FlightAware Approximate
Sat 08:31:41 AM 40.5444 -91.0572 167° South 147 169 6,300  Level Chicago Center
Sat 08:32:42 AM 40.4981 -91.0408 165° South 145 167 6,900 293 Climbing Chicago Center
Sat 08:33:44 AM 40.4531 -91.0217 162° South 157 181 6,900 49 Level Chicago Center
Sat 08:34:45 AM 40.4056 -91.0044 165° South 171 197 7,000  Climbing Chicago Center
Sat 08:35:46 AM 40.3644 -90.9878 163° South 164 189 6,900  Descending Chicago Center
Sat 08:36:06 AM 40.3475 -90.9828 167° South 164 189 7,000 74 Climbing Kansas City Center
Sat 08:37:07 AM 40.3019 -90.9617 161° South 169 194 7,000  Level Kansas City Center
Sat 08:38:08 AM 40.2544 -90.9428 163° South 175 201 7,000  Level Kansas City Center
Sat 08:39:09 AM 40.2106 -90.9269 165° South 169 194 7,000  Level Kansas City Center
Sat 08:40:09 AM 40.1642 -90.9122 166° South 169 194 7,000  Level Kansas City Center
Sat 08:41:10 AM 40.1197 -90.8958 164° South 167 192 7,000  Level Kansas City Center
Sat 08:42:11 AM 40.0775 -90.8800 164° South 162 186 7,000  Level Kansas City Center
Sat 08:43:12 AM 40.0314 -90.8622 164° South 167 192 7,000 49 Level Kansas City Center
Sat 08:44:13 AM 39.9869 -90.8436 162° South 168 193 7,100  Climbing Kansas City Center
Sat 08:45:14 AM 39.9431 -90.8275 164° South 166 191 7,000  Descending Kansas City Center
Sat 08:46:15 AM 39.8981 -90.8097 163° South 168 193 7,100  Climbing Kansas City Center
Sat 08:47:16 AM 39.8528 -90.7911 162° South 169 194 7,000 -49 Descending Kansas City Center
Sat 08:48:17 AM 39.8067 -90.7742 164° South 171 197 7,000  Level Kansas City Center
Sat 08:49:18 AM 39.7522 -90.7514 162° South 171 197 7,000  Level Kansas City Center
Sat 08:50:19 AM 39.7075 -90.7356 165° South 172 198 7,000  Level Kansas City Center
Sat 08:51:20 AM 39.6619 -90.7164 162° South 172 198 7,000  Level Kansas City Center
Sat 08:52:21 AM 39.6150 -90.6972 163° South 175 201 7,000  Level Kansas City Center
Sat 08:53:22 AM 39.5683 -90.6800 164° South 175 201 7,000  Level Kansas City Center
Sat 08:54:23 AM 39.5225 -90.6628 164° South 173 199 7,000  Level Kansas City Center
Sat 08:55:24 AM 39.4747 -90.6492 168° South 175 201 7,000  Level Kansas City Center
Sat 08:56:25 AM 39.4278 -90.6328 165° South 175 201 7,000 -49 Level Kansas City Center
Sat 08:57:26 AM 39.3808 -90.6172 166° South 174 200 6,900 -197 Descending Kansas City Center
Sat 08:58:27 AM 39.3347 -90.5989 163° South 174 200 6,600 -293 Descending Kansas City Center
Sat 08:59:29 AM 39.2878 -90.5633 150° Southeast 163 188 6,300 -293 Descending Kansas City Center
Sat 09:00:30 AM 39.2531 -90.5197 136° Southeast 171 197 6,000 -148 Descending Kansas City Center
Sat 09:01:31 AM 39.2192 -90.4800 138° Southeast 168 193 6,000 -148 Level Kansas City Center
Sat 09:02:32 AM 39.1844 -90.4403 138° Southeast 167 192 5,700 -344 Descending Kansas City Center
Sat 09:03:33 AM 39.1489 -90.4000 139° Southeast 169 194 5,300 -344 Descending Kansas City Center
Sat 09:04:34 AM 39.1128 -90.3594 139° Southeast 171 197 5,000 -148 Descending Kansas City Center
Sat 09:05:35 AM 39.0783 -90.3189 138° Southeast 169 194 5,000  Level Kansas City Center
Sat 09:06:36 AM 39.0439 -90.2789 138° Southeast 168 193 5,000  Level Kansas City Center
Sat 09:07:37 AM 39.0086 -90.2397 139° Southeast 167 192 5,000  Level Kansas City Center
Sat 09:08:38 AM 38.9733 -90.2003 139° Southeast 167 192 5,000 -148 Level Kansas City Center
Sat 09:09:39 AM 38.9322 -90.1719 152° Southeast 172 198 4,700 -390 Descending Kansas City Center
Sat 09:10:41 AM 38.8825 -90.1667 175° South 177 204 4,200 -537 Descending Kansas City Center
Sat 09:11:42 AM 38.8369 -90.1714 185° South 175 201 3,600 -639 Descending Kansas City Center
Sat 09:12:43 AM 38.8100 -90.2219 236° Southwest 154 177 2,900 -689 Descending Kansas City Center
Sat 09:13:44 AM 38.7936 -90.2653 244° Southwest 143 165 2,200 -689 Descending Kansas City Center
Sat 09:14:45 AM 38.7781 -90.3022 242° Southwest 132 152 1,500 -639 Descending Kansas City Center
Sat 09:15:46 AM 38.7633 -90.3394 243° Southwest 124 143 900 -590 Descending Kansas City Center

Login

Don't have an account? Register now (free) for customized features, flight alerts, and more!